sensor_id;sensor_type;location;lat;lon;timestamp;P1;durP1;ratioP1;P2;durP2;ratioP2
11151;SDS011;5630;49.342;10.802;2023-02-03T00:01:21;6.40;;;4.87;;
11151;SDS011;5630;49.342;10.802;2023-02-03T00:03:47;10.03;;;6.77;;
11151;SDS011;5630;49.342;10.802;2023-02-03T00:06:13;6.37;;;4.80;;
11151;SDS011;5630;49.342;10.802;2023-02-03T00:08:39;7.93;;;4.70;;
11151;SDS011;5630;49.342;10.802;2023-02-03T00:11:05;7.27;;;4.37;;
11151;SDS011;5630;49.342;10.802;2023-02-03T00:13:31;7.17;;;4.40;;
11151;SDS011;5630;49.342;10.802;2023-02-03T00:15:58;9.67;;;5.10;;
11151;SDS011;5630;49.342;10.802;2023-02-03T00:18:26;6.33;;;4.50;;
11151;SDS011;5630;49.342;10.802;2023-02-03T00:20:52;8.50;;;5.40;;
11151;SDS011;5630;49.342;10.802;2023-02-03T00:23:17;8.67;;;5.00;;
11151;SDS011;5630;49.342;10.802;2023-02-03T00:25:43;6.70;;;5.40;;
11151;SDS011;5630;49.342;10.802;2023-02-03T00:28:08;9.77;;;5.00;;
11151;SDS011;5630;49.342;10.802;2023-02-03T00:30:34;7.47;;;5.10;;
11151;SDS011;5630;49.342;10.802;2023-02-03T00:33:00;7.50;;;4.77;;
11151;SDS011;5630;49.342;10.802;2023-02-03T00:35:26;11.30;;;5.30;;
11151;SDS011;5630;49.342;10.802;2023-02-03T00:37:53;9.83;;;4.77;;
11151;SDS011;5630;49.342;10.802;2023-02-03T00:40:19;8.80;;;5.00;;
11151;SDS011;5630;49.342;10.802;2023-02-03T00:42:46;5.63;;;5.03;;
11151;SDS011;5630;49.342;10.802;2023-02-03T00:45:12;8.43;;;5.00;;
11151;SDS011;5630;49.342;10.802;2023-02-03T00:47:37;7.43;;;5.50;;
11151;SDS011;5630;49.342;10.802;2023-02-03T00:50:04;8.33;;;5.60;;
11151;SDS011;5630;49.342;10.802;2023-02-03T00:52:30;9.40;;;6.13;;
11151;SDS011;5630;49.342;10.802;2023-02-03T00:54:55;8.97;;;7.10;;
11151;SDS011;5630;49.342;10.802;2023-02-03T00:57:21;8.80;;;6.33;;
11151;SDS011;5630;49.342;10.802;2023-02-03T00:59:46;13.17;;;6.80;;
11151;SDS011;5630;49.342;10.802;2023-02-03T01:02:12;11.50;;;7.03;;
11151;SDS011;5630;49.342;10.802;2023-02-03T01:04:37;10.30;;;6.50;;
11151;SDS011;5630;49.342;10.802;2023-02-03T01:07:03;12.40;;;7.67;;
11151;SDS011;5630;49.342;10.802;2023-02-03T01:09:31;11.17;;;7.70;;
11151;SDS011;5630;49.342;10.802;2023-02-03T01:11:58;9.57;;;7.40;;
11151;SDS011;5630;49.342;10.802;2023-02-03T01:14:24;9.63;;;7.60;;
11151;SDS011;5630;49.342;10.802;2023-02-03T01:16:49;14.67;;;8.13;;
11151;SDS011;5630;49.342;10.802;2023-02-03T01:19:15;17.00;;;9.57;;
11151;SDS011;5630;49.342;10.802;2023-02-03T01:21:40;12.53;;;8.57;;
11151;SDS011;5630;49.342;10.802;2023-02-03T01:24:06;10.63;;;8.53;;
11151;SDS011;5630;49.342;10.802;2023-02-03T01:26:33;12.97;;;8.70;;
11151;SDS011;5630;49.342;10.802;2023-02-03T01:28:59;11.77;;;8.70;;
11151;SDS011;5630;49.342;10.802;2023-02-03T01:33:52;11.30;;;8.73;;
11151;SDS011;5630;49.342;10.802;2023-02-03T01:36:19;14.60;;;9.20;;
11151;SDS011;5630;49.342;10.802;2023-02-03T01:38:47;14.47;;;9.47;;
11151;SDS011;5630;49.342;10.802;2023-02-03T01:41:14;18.20;;;9.60;;
11151;SDS011;5630;49.342;10.802;2023-02-03T01:43:43;17.57;;;9.90;;
11151;SDS011;5630;49.342;10.802;2023-02-03T01:46:56;14.43;;;8.87;;
11151;SDS011;5630;49.342;10.802;2023-02-03T01:49:18;15.97;;;10.17;;
11151;SDS011;5630;49.342;10.802;2023-02-03T01:51:45;17.47;;;9.90;;
11151;SDS011;5630;49.342;10.802;2023-02-03T01:54:12;13.73;;;8.83;;
11151;SDS011;5630;49.342;10.802;2023-02-03T01:56:43;13.33;;;8.80;;
11151;SDS011;5630;49.342;10.802;2023-02-03T01:59:12;17.43;;;9.33;;
11151;SDS011;5630;49.342;10.802;2023-02-03T02:01:41;15.90;;;8.80;;
11151;SDS011;5630;49.342;10.802;2023-02-03T02:04:07;13.87;;;8.77;;
11151;SDS011;5630;49.342;10.802;2023-02-03T02:06:34;14.27;;;9.33;;
11151;SDS011;5630;49.342;10.802;2023-02-03T02:09:00;18.07;;;9.37;;
11151;SDS011;5630;49.342;10.802;2023-02-03T02:11:26;14.43;;;8.97;;
11151;SDS011;5630;49.342;10.802;2023-02-03T02:13:53;13.17;;;8.87;;
11151;SDS011;5630;49.342;10.802;2023-02-03T02:16:24;13.40;;;8.87;;
11151;SDS011;5630;49.342;10.802;2023-02-03T02:30:35;13.53;;;7.87;;
11151;SDS011;5630;49.342;10.802;2023-02-03T02:33:40;15.37;;;8.70;;
11151;SDS011;5630;49.342;10.802;2023-02-03T02:36:24;14.47;;;8.50;;
11151;SDS011;5630;49.342;10.802;2023-02-03T02:39:20;16.30;;;8.50;;
11151;SDS011;5630;49.342;10.802;2023-02-03T02:44:48;15.33;;;8.50;;
11151;SDS011;5630;49.342;10.802;2023-02-03T02:47:18;12.43;;;8.60;;
11151;SDS011;5630;49.342;10.802;2023-02-03T02:49:53;11.33;;;8.30;;
11151;SDS011;5630;49.342;10.802;2023-02-03T02:52:30;11.70;;;7.50;;
11151;SDS011;5630;49.342;10.802;2023-02-03T02:55:09;10.80;;;7.27;;
11151;SDS011;5630;49.342;10.802;2023-02-03T02:57:39;14.07;;;7.37;;
11151;SDS011;5630;49.342;10.802;2023-02-03T03:00:06;12.57;;;6.87;;
11151;SDS011;5630;49.342;10.802;2023-02-03T03:02:33;10.70;;;6.73;;
11151;SDS011;5630;49.342;10.802;2023-02-03T03:04:59;11.67;;;6.57;;
11151;SDS011;5630;49.342;10.802;2023-02-03T03:07:26;7.30;;;5.93;;
11151;SDS011;5630;49.342;10.802;2023-02-03T03:09:55;9.07;;;5.80;;
11151;SDS011;5630;49.342;10.802;2023-02-03T03:12:29;9.40;;;6.03;;
11151;SDS011;5630;49.342;10.802;2023-02-03T03:14:59;7.80;;;5.70;;
11151;SDS011;5630;49.342;10.802;2023-02-03T03:17:36;10.07;;;5.80;;
11151;SDS011;5630;49.342;10.802;2023-02-03T03:20:06;7.27;;;5.67;;
11151;SDS011;5630;49.342;10.802;2023-02-03T03:22:38;7.50;;;5.57;;
11151;SDS011;5630;49.342;10.802;2023-02-03T03:25:14;8.07;;;6.00;;
11151;SDS011;5630;49.342;10.802;2023-02-03T03:27:43;8.10;;;5.17;;
11151;SDS011;5630;49.342;10.802;2023-02-03T03:30:17;7.83;;;6.33;;
11151;SDS011;5630;49.342;10.802;2023-02-03T03:32:47;10.33;;;6.10;;
11151;SDS011;5630;49.342;10.802;2023-02-03T03:35:14;7.75;;;5.75;;
11151;SDS011;5630;49.342;10.802;2023-02-03T03:37:42;9.00;;;6.30;;
11151;SDS011;5630;49.342;10.802;2023-02-03T03:43:31;13.00;;;8.03;;
11151;SDS011;5630;49.342;10.802;2023-02-03T03:45:53;9.37;;;6.73;;
11151;SDS011;5630;49.342;10.802;2023-02-03T03:48:27;10.98;;;6.90;;
11151;SDS011;5630;49.342;10.802;2023-02-03T03:51:14;8.80;;;6.40;;
11151;SDS011;5630;49.342;10.802;2023-02-03T03:53:49;8.87;;;6.33;;
11151;SDS011;5630;49.342;10.802;2023-02-03T03:56:23;8.87;;;6.27;;
11151;SDS011;5630;49.342;10.802;2023-02-03T03:58:52;10.30;;;6.83;;
11151;SDS011;5630;49.342;10.802;2023-02-03T04:01:18;9.63;;;6.67;;
11151;SDS011;5630;49.342;10.802;2023-02-03T04:03:49;10.13;;;6.43;;
11151;SDS011;5630;49.342;10.802;2023-02-03T04:06:20;8.87;;;6.50;;
11151;SDS011;5630;49.342;10.802;2023-02-03T04:08:45;7.47;;;6.20;;
11151;SDS011;5630;49.342;10.802;2023-02-03T04:11:11;11.23;;;6.30;;
11151;SDS011;5630;49.342;10.802;2023-02-03T04:13:56;8.50;;;6.13;;
11151;SDS011;5630;49.342;10.802;2023-02-03T04:16:22;7.07;;;5.40;;
11151;SDS011;5630;49.342;10.802;2023-02-03T04:18:47;10.50;;;6.30;;
11151;SDS011;5630;49.342;10.802;2023-02-03T04:21:13;7.43;;;6.07;;
11151;SDS011;5630;49.342;10.802;2023-02-03T04:23:38;6.40;;;5.17;;
11151;SDS011;5630;49.342;10.802;2023-02-03T04:26:04;8.43;;;5.17;;
11151;SDS011;5630;49.342;10.802;2023-02-03T04:28:29;6.20;;;5.53;;
11151;SDS011;5630;49.342;10.802;2023-02-03T04:30:58;6.93;;;5.30;;
11151;SDS011;5630;49.342;10.802;2023-02-03T04:33:25;7.50;;;5.57;;
11151;SDS011;5630;49.342;10.802;2023-02-03T04:35:50;6.07;;;5.47;;
11151;SDS011;5630;49.342;10.802;2023-02-03T04:38:16;7.50;;;5.60;;
11151;SDS011;5630;49.342;10.802;2023-02-03T04:40:41;5.97;;;5.37;;
11151;SDS011;5630;49.342;10.802;2023-02-03T04:43:09;7.87;;;5.30;;
11151;SDS011;5630;49.342;10.802;2023-02-03T04:45:36;8.57;;;5.90;;
11151;SDS011;5630;49.342;10.802;2023-02-03T04:48:02;7.53;;;5.83;;
11151;SDS011;5630;49.342;10.802;2023-02-03T04:50:31;8.47;;;5.37;;
11151;SDS011;5630;49.342;10.802;2023-02-03T04:52:57;10.50;;;6.00;;
11151;SDS011;5630;49.342;10.802;2023-02-03T04:55:25;6.60;;;4.73;;
11151;SDS011;5630;49.342;10.802;2023-02-03T04:57:58;8.50;;;5.20;;
11151;SDS011;5630;49.342;10.802;2023-02-03T05:00:25;7.27;;;4.93;;
11151;SDS011;5630;49.342;10.802;2023-02-03T05:02:52;5.25;;;4.60;;
11151;SDS011;5630;49.342;10.802;2023-02-03T05:05:17;7.67;;;4.90;;
11151;SDS011;5630;49.342;10.802;2023-02-03T05:07:43;6.47;;;4.90;;
11151;SDS011;5630;49.342;10.802;2023-02-03T05:10:09;5.47;;;4.67;;
11151;SDS011;5630;49.342;10.802;2023-02-03T05:12:35;5.13;;;4.50;;
11151;SDS011;5630;49.342;10.802;2023-02-03T05:15:00;6.73;;;4.27;;
11151;SDS011;5630;49.342;10.802;2023-02-03T05:17:26;5.97;;;5.10;;
11151;SDS011;5630;49.342;10.802;2023-02-03T05:19:52;6.97;;;5.10;;
11151;SDS011;5630;49.342;10.802;2023-02-03T05:22:17;9.77;;;5.30;;
11151;SDS011;5630;49.342;10.802;2023-02-03T05:24:43;5.13;;;4.20;;
11151;SDS011;5630;49.342;10.802;2023-02-03T05:27:08;5.40;;;4.00;;
11151;SDS011;5630;49.342;10.802;2023-02-03T05:29:34;5.07;;;4.20;;
11151;SDS011;5630;49.342;10.802;2023-02-03T05:32:00;5.63;;;4.17;;
11151;SDS011;5630;49.342;10.802;2023-02-03T05:34:25;5.53;;;3.90;;
11151;SDS011;5630;49.342;10.802;2023-02-03T05:36:51;4.50;;;4.10;;
11151;SDS011;5630;49.342;10.802;2023-02-03T05:39:16;5.67;;;4.50;;
11151;SDS011;5630;49.342;10.802;2023-02-03T05:41:42;4.90;;;4.13;;
11151;SDS011;5630;49.342;10.802;2023-02-03T05:44:17;4.60;;;4.20;;
11151;SDS011;5630;49.342;10.802;2023-02-03T05:46:47;5.55;;;3.72;;
11151;SDS011;5630;49.342;10.802;2023-02-03T05:49:13;5.07;;;3.63;;
11151;SDS011;5630;49.342;10.802;2023-02-03T05:51:39;4.47;;;3.70;;
11151;SDS011;5630;49.342;10.802;2023-02-03T05:54:05;5.10;;;4.07;;
11151;SDS011;5630;49.342;10.802;2023-02-03T05:56:31;4.10;;;3.63;;
11151;SDS011;5630;49.342;10.802;2023-02-03T05:58:57;5.43;;;3.83;;
11151;SDS011;5630;49.342;10.802;2023-02-03T06:01:23;4.20;;;3.73;;
11151;SDS011;5630;49.342;10.802;2023-02-03T06:03:48;3.97;;;3.57;;
11151;SDS011;5630;49.342;10.802;2023-02-03T06:06:14;3.90;;;2.97;;
11151;SDS011;5630;49.342;10.802;2023-02-03T06:08:40;4.67;;;3.83;;
11151;SDS011;5630;49.342;10.802;2023-02-03T06:11:05;5.27;;;3.57;;
11151;SDS011;5630;49.342;10.802;2023-02-03T06:13:31;3.47;;;3.17;;
11151;SDS011;5630;49.342;10.802;2023-02-03T06:15:56;3.43;;;3.13;;
11151;SDS011;5630;49.342;10.802;2023-02-03T06:18:22;9.87;;;5.10;;
11151;SDS011;5630;49.342;10.802;2023-02-03T06:20:48;4.00;;;3.43;;
11151;SDS011;5630;49.342;10.802;2023-02-03T06:23:14;3.30;;;2.70;;
11151;SDS011;5630;49.342;10.802;2023-02-03T06:25:41;2.80;;;2.60;;
11151;SDS011;5630;49.342;10.802;2023-02-03T06:28:07;5.27;;;3.10;;
11151;SDS011;5630;49.342;10.802;2023-02-03T06:30:32;4.80;;;3.60;;
11151;SDS011;5630;49.342;10.802;2023-02-03T06:32:58;3.23;;;2.87;;
11151;SDS011;5630;49.342;10.802;2023-02-03T06:35:23;3.70;;;3.20;;
11151;SDS011;5630;49.342;10.802;2023-02-03T06:37:49;3.43;;;2.60;;
11151;SDS011;5630;49.342;10.802;2023-02-03T06:40:15;6.97;;;3.07;;
11151;SDS011;5630;49.342;10.802;2023-02-03T06:42:43;3.63;;;2.47;;
11151;SDS011;5630;49.342;10.802;2023-02-03T06:45:09;2.30;;;2.10;;
11151;SDS011;5630;49.342;10.802;2023-02-03T06:47:37;3.23;;;2.70;;
11151;SDS011;5630;49.342;10.802;2023-02-03T06:50:07;2.93;;;2.63;;
11151;SDS011;5630;49.342;10.802;2023-02-03T06:52:34;2.83;;;2.63;;
11151;SDS011;5630;49.342;10.802;2023-02-03T06:55:00;4.77;;;2.60;;
11151;SDS011;5630;49.342;10.802;2023-02-03T06:57:26;3.93;;;2.73;;
11151;SDS011;5630;49.342;10.802;2023-02-03T06:59:51;3.17;;;2.87;;
11151;SDS011;5630;49.342;10.802;2023-02-03T07:02:17;4.80;;;3.00;;
11151;SDS011;5630;49.342;10.802;2023-02-03T07:04:42;3.77;;;3.00;;
11151;SDS011;5630;49.342;10.802;2023-02-03T07:07:09;3.80;;;2.90;;
11151;SDS011;5630;49.342;10.802;2023-02-03T07:09:36;4.83;;;3.20;;
11151;SDS011;5630;49.342;10.802;2023-02-03T07:12:02;5.17;;;3.07;;
11151;SDS011;5630;49.342;10.802;2023-02-03T07:14:29;3.50;;;3.03;;
11151;SDS011;5630;49.342;10.802;2023-02-03T07:16:55;4.73;;;3.40;;
11151;SDS011;5630;49.342;10.802;2023-02-03T07:19:21;3.53;;;3.20;;
11151;SDS011;5630;49.342;10.802;2023-02-03T07:21:46;4.27;;;3.30;;
11151;SDS011;5630;49.342;10.802;2023-02-03T07:24:12;3.87;;;3.20;;
11151;SDS011;5630;49.342;10.802;2023-02-03T07:26:38;5.77;;;3.77;;
11151;SDS011;5630;49.342;10.802;2023-02-03T07:29:03;6.30;;;5.60;;
11151;SDS011;5630;49.342;10.802;2023-02-03T07:31:29;5.30;;;3.90;;
11151;SDS011;5630;49.342;10.802;2023-02-03T07:33:55;6.80;;;4.23;;
11151;SDS011;5630;49.342;10.802;2023-02-03T07:36:21;4.80;;;3.70;;
11151;SDS011;5630;49.342;10.802;2023-02-03T07:38:48;5.93;;;3.70;;
11151;SDS011;5630;49.342;10.802;2023-02-03T07:41:13;5.43;;;3.80;;
11151;SDS011;5630;49.342;10.802;2023-02-03T07:43:39;4.57;;;3.73;;
11151;SDS011;5630;49.342;10.802;2023-02-03T07:46:05;5.43;;;4.30;;
11151;SDS011;5630;49.342;10.802;2023-02-03T07:48:30;4.90;;;4.00;;
11151;SDS011;5630;49.342;10.802;2023-02-03T07:50:56;5.30;;;4.00;;
11151;SDS011;5630;49.342;10.802;2023-02-03T07:53:21;4.27;;;3.87;;
11151;SDS011;5630;49.342;10.802;2023-02-03T07:55:47;5.87;;;4.40;;
11151;SDS011;5630;49.342;10.802;2023-02-03T07:58:12;6.23;;;4.50;;
11151;SDS011;5630;49.342;10.802;2023-02-03T08:00:39;5.80;;;4.10;;
11151;SDS011;5630;49.342;10.802;2023-02-03T08:03:04;5.00;;;4.30;;
11151;SDS011;5630;49.342;10.802;2023-02-03T08:05:30;5.40;;;4.37;;
11151;SDS011;5630;49.342;10.802;2023-02-03T08:07:55;4.57;;;4.00;;
11151;SDS011;5630;49.342;10.802;2023-02-03T08:10:22;5.13;;;3.80;;
11151;SDS011;5630;49.342;10.802;2023-02-03T08:12:48;4.57;;;3.50;;
11151;SDS011;5630;49.342;10.802;2023-02-03T08:15:16;4.43;;;3.40;;
11151;SDS011;5630;49.342;10.802;2023-02-03T08:17:42;6.03;;;4.30;;
11151;SDS011;5630;49.342;10.802;2023-02-03T08:20:08;6.03;;;4.03;;
11151;SDS011;5630;49.342;10.802;2023-02-03T08:22:34;5.83;;;3.97;;
11151;SDS011;5630;49.342;10.802;2023-02-03T08:25:00;5.30;;;3.77;;
11151;SDS011;5630;49.342;10.802;2023-02-03T08:27:26;4.50;;;3.60;;
11151;SDS011;5630;49.342;10.802;2023-02-03T08:29:51;4.30;;;3.20;;
11151;SDS011;5630;49.342;10.802;2023-02-03T08:32:19;4.27;;;3.40;;
11151;SDS011;5630;49.342;10.802;2023-02-03T08:34:46;4.47;;;3.50;;
11151;SDS011;5630;49.342;10.802;2023-02-03T08:37:13;5.27;;;3.20;;
11151;SDS011;5630;49.342;10.802;2023-02-03T08:39:40;4.47;;;3.40;;
11151;SDS011;5630;49.342;10.802;2023-02-03T08:42:05;5.50;;;3.50;;
11151;SDS011;5630;49.342;10.802;2023-02-03T08:44:32;4.57;;;2.73;;
11151;SDS011;5630;49.342;10.802;2023-02-03T08:46:58;3.47;;;2.90;;
11151;SDS011;5630;49.342;10.802;2023-02-03T08:49:25;5.47;;;3.90;;
11151;SDS011;5630;49.342;10.802;2023-02-03T08:51:52;5.73;;;3.10;;
11151;SDS011;5630;49.342;10.802;2023-02-03T08:54:18;3.47;;;2.80;;
11151;SDS011;5630;49.342;10.802;2023-02-03T08:56:44;3.63;;;3.00;;
11151;SDS011;5630;49.342;10.802;2023-02-03T08:59:10;2.97;;;2.67;;
11151;SDS011;5630;49.342;10.802;2023-02-03T09:01:37;2.57;;;2.30;;
11151;SDS011;5630;49.342;10.802;2023-02-03T09:04:04;3.60;;;2.73;;
11151;SDS011;5630;49.342;10.802;2023-02-03T09:06:32;4.77;;;2.77;;
11151;SDS011;5630;49.342;10.802;2023-02-03T09:08:58;2.80;;;2.57;;
11151;SDS011;5630;49.342;10.802;2023-02-03T09:11:24;3.70;;;2.40;;
11151;SDS011;5630;49.342;10.802;2023-02-03T09:13:49;3.80;;;2.90;;
11151;SDS011;5630;49.342;10.802;2023-02-03T09:16:16;4.47;;;2.80;;
11151;SDS011;5630;49.342;10.802;2023-02-03T09:18:43;3.77;;;3.10;;
11151;SDS011;5630;49.342;10.802;2023-02-03T09:21:09;4.10;;;3.43;;
11151;SDS011;5630;49.342;10.802;2023-02-03T09:23:37;3.13;;;2.50;;
11151;SDS011;5630;49.342;10.802;2023-02-03T09:26:03;3.03;;;2.73;;
11151;SDS011;5630;49.342;10.802;2023-02-03T09:28:30;2.77;;;2.57;;
11151;SDS011;5630;49.342;10.802;2023-02-03T09:31:06;2.97;;;2.63;;
11151;SDS011;5630;49.342;10.802;2023-02-03T09:33:33;3.17;;;2.63;;
11151;SDS011;5630;49.342;10.802;2023-02-03T09:35:59;2.93;;;2.63;;
11151;SDS011;5630;49.342;10.802;2023-02-03T09:38:25;3.83;;;3.10;;
11151;SDS011;5630;49.342;10.802;2023-02-03T09:40:54;4.33;;;3.07;;
11151;SDS011;5630;49.342;10.802;2023-02-03T09:43:34;5.50;;;3.33;;
11151;SDS011;5630;49.342;10.802;2023-02-03T09:46:18;5.90;;;3.93;;
11151;SDS011;5630;49.342;10.802;2023-02-03T09:48:57;7.27;;;4.00;;
11151;SDS011;5630;49.342;10.802;2023-02-03T09:51:35;3.80;;;3.30;;
11151;SDS011;5630;49.342;10.802;2023-02-03T09:54:25;3.77;;;3.47;;
11151;SDS011;5630;49.342;10.802;2023-02-03T09:56:59;6.23;;;3.77;;
11151;SDS011;5630;49.342;10.802;2023-02-03T09:59:28;3.43;;;3.13;;
11151;SDS011;5630;49.342;10.802;2023-02-03T10:04:34;4.10;;;3.53;;
11151;SDS011;5630;49.342;10.802;2023-02-03T10:07:52;6.50;;;4.77;;
11151;SDS011;5630;49.342;10.802;2023-02-03T10:12:47;3.20;;;2.90;;
11151;SDS011;5630;49.342;10.802;2023-02-03T10:18:38;4.17;;;3.17;;
11151;SDS011;5630;49.342;10.802;2023-02-03T10:21:20;3.20;;;2.90;;
11151;SDS011;5630;49.342;10.802;2023-02-03T10:24:02;3.87;;;2.93;;
11151;SDS011;5630;49.342;10.802;2023-02-03T10:26:30;3.33;;;2.80;;
11151;SDS011;5630;49.342;10.802;2023-02-03T10:28:57;3.43;;;2.77;;
11151;SDS011;5630;49.342;10.802;2023-02-03T10:31:31;3.63;;;2.90;;
11151;SDS011;5630;49.342;10.802;2023-02-03T10:34:00;4.30;;;2.90;;
11151;SDS011;5630;49.342;10.802;2023-02-03T10:41:45;3.10;;;2.80;;
11151;SDS011;5630;49.342;10.802;2023-02-03T10:44:12;3.70;;;2.50;;
11151;SDS011;5630;49.342;10.802;2023-02-03T10:46:39;3.20;;;2.90;;
11151;SDS011;5630;49.342;10.802;2023-02-03T10:49:07;5.73;;;3.00;;
11151;SDS011;5630;49.342;10.802;2023-02-03T10:51:49;2.93;;;2.57;;
11151;SDS011;5630;49.342;10.802;2023-02-03T10:56:54;4.07;;;2.90;;
11151;SDS011;5630;49.342;10.802;2023-02-03T10:59:32;4.37;;;3.10;;
11151;SDS011;5630;49.342;10.802;2023-02-03T11:01:59;6.50;;;3.17;;
11151;SDS011;5630;49.342;10.802;2023-02-03T11:04:32;4.63;;;3.30;;
11151;SDS011;5630;49.342;10.802;2023-02-03T11:07:02;3.03;;;2.63;;
11151;SDS011;5630;49.342;10.802;2023-02-03T11:09:32;7.53;;;6.20;;
11151;SDS011;5630;49.342;10.802;2023-02-03T11:12:04;7.63;;;6.83;;
11151;SDS011;5630;49.342;10.802;2023-02-03T11:14:38;9.30;;;6.23;;
11151;SDS011;5630;49.342;10.802;2023-02-03T11:17:08;5.13;;;4.47;;
11151;SDS011;5630;49.342;10.802;2023-02-03T11:19:46;8.10;;;4.77;;
11151;SDS011;5630;49.342;10.802;2023-02-03T11:22:13;6.87;;;5.20;;
11151;SDS011;5630;49.342;10.802;2023-02-03T11:24:54;4.70;;;3.73;;
11151;SDS011;5630;49.342;10.802;2023-02-03T11:27:20;10.30;;;9.47;;
11151;SDS011;5630;49.342;10.802;2023-02-03T11:29:49;8.57;;;7.77;;
11151;SDS011;5630;49.342;10.802;2023-02-03T11:32:37;6.70;;;5.90;;
11151;SDS011;5630;49.342;10.802;2023-02-03T11:35:17;10.00;;;9.07;;
11151;SDS011;5630;49.342;10.802;2023-02-03T11:37:44;6.03;;;5.43;;
11151;SDS011;5630;49.342;10.802;2023-02-03T11:42:40;6.17;;;4.53;;
11151;SDS011;5630;49.342;10.802;2023-02-03T11:47:59;3.00;;;2.70;;
11151;SDS011;5630;49.342;10.802;2023-02-03T11:50:29;3.67;;;2.30;;
11151;SDS011;5630;49.342;10.802;2023-02-03T12:11:44;9.03;;;2.70;;
11151;SDS011;5630;49.342;10.802;2023-02-03T12:23:24;2.60;;;2.30;;
11151;SDS011;5630;49.342;10.802;2023-02-03T12:28:50;4.37;;;2.10;;
11151;SDS011;5630;49.342;10.802;2023-02-03T12:34:08;3.33;;;2.10;;
11151;SDS011;5630;49.342;10.802;2023-02-03T12:37:07;2.57;;;1.87;;
11151;SDS011;5630;49.342;10.802;2023-02-03T12:39:41;2.57;;;2.00;;
11151;SDS011;5630;49.342;10.802;2023-02-03T12:47:20;2.20;;;2.00;;
11151;SDS011;5630;49.342;10.802;2023-02-03T12:49:52;4.97;;;2.97;;
11151;SDS011;5630;49.342;10.802;2023-02-03T12:52:26;2.40;;;2.20;;
11151;SDS011;5630;49.342;10.802;2023-02-03T12:58:24;2.07;;;1.80;;
11151;SDS011;5630;49.342;10.802;2023-02-03T13:03:18;1.70;;;1.60;;
11151;SDS011;5630;49.342;10.802;2023-02-03T13:06:06;2.80;;;2.50;;
11151;SDS011;5630;49.342;10.802;2023-02-03T13:11:51;1.80;;;1.70;;
11151;SDS011;5630;49.342;10.802;2023-02-03T13:14:39;2.30;;;1.87;;
11151;SDS011;5630;49.342;10.802;2023-02-03T13:20:04;2.60;;;1.97;;
11151;SDS011;5630;49.342;10.802;2023-02-03T13:22:37;2.30;;;1.90;;
11151;SDS011;5630;49.342;10.802;2023-02-03T13:25:26;1.97;;;1.80;;
11151;SDS011;5630;49.342;10.802;2023-02-03T13:44:40;3.83;;;2.23;;
11151;SDS011;5630;49.342;10.802;2023-02-03T13:47:13;5.17;;;3.80;;
11151;SDS011;5630;49.342;10.802;2023-02-03T13:49:42;2.90;;;2.50;;
11151;SDS011;5630;49.342;10.802;2023-02-03T13:55:02;2.80;;;2.50;;
11151;SDS011;5630;49.342;10.802;2023-02-03T13:59:58;2.37;;;1.93;;
11151;SDS011;5630;49.342;10.802;2023-02-03T14:04:53;3.70;;;2.47;;
11151;SDS011;5630;49.342;10.802;2023-02-03T14:07:33;2.03;;;1.83;;
11151;SDS011;5630;49.342;10.802;2023-02-03T14:12:36;2.73;;;2.03;;
11151;SDS011;5630;49.342;10.802;2023-02-03T14:15:26;2.30;;;2.10;;
11151;SDS011;5630;49.342;10.802;2023-02-03T14:22:51;2.30;;;2.10;;
11151;SDS011;5630;49.342;10.802;2023-02-03T14:26:04;2.43;;;1.87;;
11151;SDS011;5630;49.342;10.802;2023-02-03T14:28:39;2.17;;;1.97;;
11151;SDS011;5630;49.342;10.802;2023-02-03T14:31:11;2.33;;;1.77;;
11151;SDS011;5630;49.342;10.802;2023-02-03T14:47:07;1.70;;;1.60;;
11151;SDS011;5630;49.342;10.802;2023-02-03T14:52:32;2.10;;;1.90;;
11151;SDS011;5630;49.342;10.802;2023-02-03T14:57:56;1.50;;;1.40;;
11151;SDS011;5630;49.342;10.802;2023-02-03T15:00:30;2.20;;;1.30;;
11151;SDS011;5630;49.342;10.802;2023-02-03T15:05:45;1.80;;;1.70;;
11151;SDS011;5630;49.342;10.802;2023-02-03T15:10:59;2.23;;;1.80;;
11151;SDS011;5630;49.342;10.802;2023-02-03T15:13:30;1.90;;;1.70;;
11151;SDS011;5630;49.342;10.802;2023-02-03T15:15:57;2.63;;;2.40;;
11151;SDS011;5630;49.342;10.802;2023-02-03T15:18:30;2.37;;;1.97;;
11151;SDS011;5630;49.342;10.802;2023-02-03T15:21:00;1.60;;;1.50;;
11151;SDS011;5630;49.342;10.802;2023-02-03T15:23:27;2.23;;;2.03;;
11151;SDS011;5630;49.342;10.802;2023-02-03T15:25:55;4.60;;;3.13;;
11151;SDS011;5630;49.342;10.802;2023-02-03T15:28:23;3.00;;;2.80;;
11151;SDS011;5630;49.342;10.802;2023-02-03T15:33:31;7.80;;;5.90;;
11151;SDS011;5630;49.342;10.802;2023-02-03T15:36:01;5.27;;;4.37;;
11151;SDS011;5630;49.342;10.802;2023-02-03T15:38:37;7.97;;;6.70;;
11151;SDS011;5630;49.342;10.802;2023-02-03T15:41:06;4.77;;;4.33;;
11151;SDS011;5630;49.342;10.802;2023-02-03T15:43:38;2.33;;;2.20;;
11151;SDS011;5630;49.342;10.802;2023-02-03T15:46:15;2.20;;;2.00;;
11151;SDS011;5630;49.342;10.802;2023-02-03T15:48:51;2.40;;;2.20;;
11151;SDS011;5630;49.342;10.802;2023-02-03T15:51:33;3.00;;;2.50;;
11151;SDS011;5630;49.342;10.802;2023-02-03T15:56:49;2.47;;;2.10;;
11151;SDS011;5630;49.342;10.802;2023-02-03T15:59:31;2.47;;;2.17;;
11151;SDS011;5630;49.342;10.802;2023-02-03T16:01:59;2.90;;;1.50;;
11151;SDS011;5630;49.342;10.802;2023-02-03T16:04:30;1.50;;;1.40;;
11151;SDS011;5630;49.342;10.802;2023-02-03T16:06:56;1.90;;;1.70;;
11151;SDS011;5630;49.342;10.802;2023-02-03T16:09:25;10.07;;;6.33;;
11151;SDS011;5630;49.342;10.802;2023-02-03T16:12:56;16.33;;;11.63;;
11151;SDS011;5630;49.342;10.802;2023-02-03T16:14:54;6.37;;;5.43;;
11151;SDS011;5630;49.342;10.802;2023-02-03T16:22:42;7.10;;;6.40;;
11151;SDS011;5630;49.342;10.802;2023-02-03T16:27:54;2.93;;;2.63;;
11151;SDS011;5630;49.342;10.802;2023-02-03T16:30:50;1.97;;;1.87;;
11151;SDS011;5630;49.342;10.802;2023-02-03T16:33:36;5.53;;;5.03;;
11151;SDS011;5630;49.342;10.802;2023-02-03T16:36:20;6.70;;;6.10;;
11151;SDS011;5630;49.342;10.802;2023-02-03T16:39:07;5.53;;;5.13;;
11151;SDS011;5630;49.342;10.802;2023-02-03T16:41:53;2.83;;;2.63;;
11151;SDS011;5630;49.342;10.802;2023-02-03T16:44:40;4.27;;;3.87;;
11151;SDS011;5630;49.342;10.802;2023-02-03T16:47:24;3.90;;;2.30;;
11151;SDS011;5630;49.342;10.802;2023-02-03T16:50:15;5.30;;;4.07;;
11151;SDS011;5630;49.342;10.802;2023-02-03T16:53:04;2.40;;;2.20;;
11151;SDS011;5630;49.342;10.802;2023-02-03T16:55:35;11.37;;;8.17;;
11151;SDS011;5630;49.342;10.802;2023-02-03T16:58:00;11.13;;;7.70;;
11151;SDS011;5630;49.342;10.802;2023-02-03T17:00:26;10.70;;;8.30;;
11151;SDS011;5630;49.342;10.802;2023-02-03T17:02:51;14.03;;;9.53;;
11151;SDS011;5630;49.342;10.802;2023-02-03T17:05:17;9.20;;;6.57;;
11151;SDS011;5630;49.342;10.802;2023-02-03T17:07:43;9.33;;;5.73;;
11151;SDS011;5630;49.342;10.802;2023-02-03T17:10:09;3.47;;;3.10;;
11151;SDS011;5630;49.342;10.802;2023-02-03T17:12:35;4.83;;;4.07;;
11151;SDS011;5630;49.342;10.802;2023-02-03T17:15:02;5.23;;;3.93;;
11151;SDS011;5630;49.342;10.802;2023-02-03T17:17:28;3.80;;;3.17;;
11151;SDS011;5630;49.342;10.802;2023-02-03T17:19:54;4.60;;;3.33;;
11151;SDS011;5630;49.342;10.802;2023-02-03T17:22:21;3.23;;;2.90;;
11151;SDS011;5630;49.342;10.802;2023-02-03T17:24:46;3.23;;;2.70;;
11151;SDS011;5630;49.342;10.802;2023-02-03T17:27:12;5.83;;;4.50;;
11151;SDS011;5630;49.342;10.802;2023-02-03T17:29:37;3.30;;;2.87;;
11151;SDS011;5630;49.342;10.802;2023-02-03T17:32:03;2.70;;;2.37;;
11151;SDS011;5630;49.342;10.802;2023-02-03T17:34:29;3.00;;;2.60;;
11151;SDS011;5630;49.342;10.802;2023-02-03T17:36:54;5.73;;;2.97;;
11151;SDS011;5630;49.342;10.802;2023-02-03T17:39:20;2.30;;;1.80;;
11151;SDS011;5630;49.342;10.802;2023-02-03T17:41:46;2.30;;;2.07;;
11151;SDS011;5630;49.342;10.802;2023-02-03T17:44:11;2.80;;;2.60;;